sensor_id;sensor_type;location;lat;lon;timestamp;P1;durP1;ratioP1;P2;durP2;ratioP2
32611;SDS011;19030;49.478;8.986;2023-02-28T00:00:16;7.68;;;3.40;;
32611;SDS011;19030;49.478;8.986;2023-02-28T00:02:18;9.48;;;3.63;;
32611;SDS011;19030;49.478;8.986;2023-02-28T00:04:18;7.35;;;3.45;;
32611;SDS011;19030;49.478;8.986;2023-02-28T00:06:19;9.35;;;4.25;;
32611;SDS011;19030;49.478;8.986;2023-02-28T00:08:20;10.70;;;5.28;;
32611;SDS011;19030;49.478;8.986;2023-02-28T00:10:22;8.57;;;3.78;;
32611;SDS011;19030;49.478;8.986;2023-02-28T00:12:25;9.23;;;3.70;;
32611;SDS011;19030;49.478;8.986;2023-02-28T00:14:26;8.52;;;3.88;;
32611;SDS011;19030;49.478;8.986;2023-02-28T00:16:26;8.75;;;3.97;;
32611;SDS011;19030;49.478;8.986;2023-02-28T00:18:27;6.80;;;3.70;;
32611;SDS011;19030;49.478;8.986;2023-02-28T00:20:28;7.50;;;3.40;;
32611;SDS011;19030;49.478;8.986;2023-02-28T00:22:30;9.02;;;3.75;;
32611;SDS011;19030;49.478;8.986;2023-02-28T00:24:30;9.07;;;4.57;;
32611;SDS011;19030;49.478;8.986;2023-02-28T00:26:31;8.75;;;4.15;;
32611;SDS011;19030;49.478;8.986;2023-02-28T00:28:32;8.98;;;4.18;;
32611;SDS011;19030;49.478;8.986;2023-02-28T00:30:33;8.63;;;3.80;;
32611;SDS011;19030;49.478;8.986;2023-02-28T00:32:33;8.55;;;3.90;;
32611;SDS011;19030;49.478;8.986;2023-02-28T00:34:35;6.97;;;3.70;;
32611;SDS011;19030;49.478;8.986;2023-02-28T00:36:37;8.38;;;3.97;;
32611;SDS011;19030;49.478;8.986;2023-02-28T00:38:38;7.65;;;3.78;;
32611;SDS011;19030;49.478;8.986;2023-02-28T00:40:40;8.07;;;3.85;;
32611;SDS011;19030;49.478;8.986;2023-02-28T00:42:40;8.20;;;3.63;;
32611;SDS011;19030;49.478;8.986;2023-02-28T00:44:41;8.52;;;4.10;;
32611;SDS011;19030;49.478;8.986;2023-02-28T00:46:41;8.18;;;3.97;;
32611;SDS011;19030;49.478;8.986;2023-02-28T00:48:42;7.55;;;3.97;;
32611;SDS011;19030;49.478;8.986;2023-02-28T00:50:43;7.55;;;4.00;;
32611;SDS011;19030;49.478;8.986;2023-02-28T00:52:43;8.07;;;4.10;;
32611;SDS011;19030;49.478;8.986;2023-02-28T00:54:44;7.72;;;3.72;;
32611;SDS011;19030;49.478;8.986;2023-02-28T00:56:45;9.45;;;4.20;;
32611;SDS011;19030;49.478;8.986;2023-02-28T00:58:46;7.65;;;3.88;;
32611;SDS011;19030;49.478;8.986;2023-02-28T01:00:46;9.15;;;4.07;;
32611;SDS011;19030;49.478;8.986;2023-02-28T01:02:50;9.60;;;4.20;;
32611;SDS011;19030;49.478;8.986;2023-02-28T01:04:50;8.70;;;4.40;;
32611;SDS011;19030;49.478;8.986;2023-02-28T01:06:51;7.47;;;4.25;;
32611;SDS011;19030;49.478;8.986;2023-02-28T01:08:52;8.65;;;4.60;;
32611;SDS011;19030;49.478;8.986;2023-02-28T01:10:52;9.98;;;4.53;;
32611;SDS011;19030;49.478;8.986;2023-02-28T01:12:53;10.38;;;4.32;;
32611;SDS011;19030;49.478;8.986;2023-02-28T01:14:53;9.45;;;4.43;;
32611;SDS011;19030;49.478;8.986;2023-02-28T01:16:55;10.00;;;4.70;;
32611;SDS011;19030;49.478;8.986;2023-02-28T01:18:56;9.20;;;4.70;;
32611;SDS011;19030;49.478;8.986;2023-02-28T01:20:57;8.55;;;4.53;;
32611;SDS011;19030;49.478;8.986;2023-02-28T01:22:57;8.20;;;4.75;;
32611;SDS011;19030;49.478;8.986;2023-02-28T01:24:58;8.85;;;3.90;;
32611;SDS011;19030;49.478;8.986;2023-02-28T01:26:58;8.63;;;4.32;;
32611;SDS011;19030;49.478;8.986;2023-02-28T01:28:59;8.13;;;4.18;;
32611;SDS011;19030;49.478;8.986;2023-02-28T01:31:00;9.30;;;4.47;;
32611;SDS011;19030;49.478;8.986;2023-02-28T01:33:01;10.27;;;4.22;;
32611;SDS011;19030;49.478;8.986;2023-02-28T01:35:02;10.13;;;4.70;;
32611;SDS011;19030;49.478;8.986;2023-02-28T01:37:02;8.85;;;4.25;;
32611;SDS011;19030;49.478;8.986;2023-02-28T01:39:03;9.75;;;4.63;;
32611;SDS011;19030;49.478;8.986;2023-02-28T01:41:04;10.82;;;4.72;;
32611;SDS011;19030;49.478;8.986;2023-02-28T01:43:19;9.07;;;4.50;;
32611;SDS011;19030;49.478;8.986;2023-02-28T01:45:40;8.02;;;3.75;;
32611;SDS011;19030;49.478;8.986;2023-02-28T01:47:42;10.43;;;5.18;;
32611;SDS011;19030;49.478;8.986;2023-02-28T01:49:43;8.65;;;4.85;;
32611;SDS011;19030;49.478;8.986;2023-02-28T01:51:48;9.57;;;4.35;;
32611;SDS011;19030;49.478;8.986;2023-02-28T01:53:55;9.65;;;4.55;;
32611;SDS011;19030;49.478;8.986;2023-02-28T01:55:59;10.57;;;4.80;;
32611;SDS011;19030;49.478;8.986;2023-02-28T01:58:02;10.90;;;5.07;;
32611;SDS011;19030;49.478;8.986;2023-02-28T02:00:09;9.27;;;4.57;;
32611;SDS011;19030;49.478;8.986;2023-02-28T02:02:14;7.80;;;4.38;;
32611;SDS011;19030;49.478;8.986;2023-02-28T02:04:17;8.98;;;4.93;;
32611;SDS011;19030;49.478;8.986;2023-02-28T02:06:19;10.98;;;4.57;;
32611;SDS011;19030;49.478;8.986;2023-02-28T02:08:21;9.52;;;5.43;;
32611;SDS011;19030;49.478;8.986;2023-02-28T02:20:03;10.45;;;5.28;;
32611;SDS011;19030;49.478;8.986;2023-02-28T02:22:32;11.20;;;4.90;;
32611;SDS011;19030;49.478;8.986;2023-02-28T02:40:16;9.85;;;5.25;;
32611;SDS011;19030;49.478;8.986;2023-02-28T02:42:28;9.73;;;5.10;;
32611;SDS011;19030;49.478;8.986;2023-02-28T02:45:00;10.88;;;5.03;;
32611;SDS011;19030;49.478;8.986;2023-02-28T02:47:37;9.85;;;4.80;;
32611;SDS011;19030;49.478;8.986;2023-02-28T02:49:39;11.20;;;5.65;;
32611;SDS011;19030;49.478;8.986;2023-02-28T02:51:52;11.75;;;5.38;;
32611;SDS011;19030;49.478;8.986;2023-02-28T02:54:00;11.20;;;5.70;;
32611;SDS011;19030;49.478;8.986;2023-02-28T02:56:07;9.77;;;5.35;;
32611;SDS011;19030;49.478;8.986;2023-02-28T02:58:10;11.80;;;6.50;;
32611;SDS011;19030;49.478;8.986;2023-02-28T03:00:15;13.90;;;5.57;;
32611;SDS011;19030;49.478;8.986;2023-02-28T03:02:20;11.13;;;5.47;;
32611;SDS011;19030;49.478;8.986;2023-02-28T03:04:22;10.48;;;5.45;;
32611;SDS011;19030;49.478;8.986;2023-02-28T03:06:26;10.68;;;5.82;;
32611;SDS011;19030;49.478;8.986;2023-02-28T03:08:28;12.52;;;5.82;;
32611;SDS011;19030;49.478;8.986;2023-02-28T03:10:34;10.38;;;5.57;;
32611;SDS011;19030;49.478;8.986;2023-02-28T03:12:40;11.77;;;6.25;;
32611;SDS011;19030;49.478;8.986;2023-02-28T03:15:07;11.40;;;6.00;;
32611;SDS011;19030;49.478;8.986;2023-02-28T03:19:51;12.00;;;6.60;;
32611;SDS011;19030;49.478;8.986;2023-02-28T03:27:06;13.70;;;6.15;;
32611;SDS011;19030;49.478;8.986;2023-02-28T03:29:13;11.38;;;6.22;;
32611;SDS011;19030;49.478;8.986;2023-02-28T03:31:25;15.55;;;7.55;;
32611;SDS011;19030;49.478;8.986;2023-02-28T03:33:34;13.13;;;6.80;;
32611;SDS011;19030;49.478;8.986;2023-02-28T03:37:41;11.02;;;6.00;;
32611;SDS011;19030;49.478;8.986;2023-02-28T03:39:46;11.80;;;6.13;;
32611;SDS011;19030;49.478;8.986;2023-02-28T03:41:55;13.57;;;6.40;;
32611;SDS011;19030;49.478;8.986;2023-02-28T03:44:10;12.60;;;6.32;;
32611;SDS011;19030;49.478;8.986;2023-02-28T03:46:31;12.13;;;6.03;;
32611;SDS011;19030;49.478;8.986;2023-02-28T03:48:40;12.60;;;7.00;;
32611;SDS011;19030;49.478;8.986;2023-02-28T03:50:49;10.50;;;6.30;;
32611;SDS011;19030;49.478;8.986;2023-02-28T03:52:58;11.70;;;5.82;;
32611;SDS011;19030;49.478;8.986;2023-02-28T03:55:06;10.95;;;6.03;;
32611;SDS011;19030;49.478;8.986;2023-02-28T03:57:12;12.05;;;6.45;;
32611;SDS011;19030;49.478;8.986;2023-02-28T03:59:23;10.75;;;6.10;;
32611;SDS011;19030;49.478;8.986;2023-02-28T04:01:30;11.27;;;6.25;;
32611;SDS011;19030;49.478;8.986;2023-02-28T04:03:41;10.77;;;5.80;;
32611;SDS011;19030;49.478;8.986;2023-02-28T04:05:52;12.30;;;6.63;;
32611;SDS011;19030;49.478;8.986;2023-02-28T04:07:53;11.63;;;6.13;;
32611;SDS011;19030;49.478;8.986;2023-02-28T04:09:54;16.65;;;7.20;;
32611;SDS011;19030;49.478;8.986;2023-02-28T04:11:55;12.07;;;6.47;;
32611;SDS011;19030;49.478;8.986;2023-02-28T04:13:58;19.63;;;8.50;;
32611;SDS011;19030;49.478;8.986;2023-02-28T04:15:58;19.40;;;7.68;;
32611;SDS011;19030;49.478;8.986;2023-02-28T04:17:59;15.10;;;7.45;;
32611;SDS011;19030;49.478;8.986;2023-02-28T04:20:00;13.75;;;6.70;;
32611;SDS011;19030;49.478;8.986;2023-02-28T04:22:00;12.43;;;6.10;;
32611;SDS011;19030;49.478;8.986;2023-02-28T04:24:01;10.50;;;6.43;;
32611;SDS011;19030;49.478;8.986;2023-02-28T04:26:03;10.60;;;5.88;;
32611;SDS011;19030;49.478;8.986;2023-02-28T04:28:04;12.38;;;7.20;;
32611;SDS011;19030;49.478;8.986;2023-02-28T04:30:04;12.90;;;6.35;;
32611;SDS011;19030;49.478;8.986;2023-02-28T04:32:06;15.63;;;6.60;;
32611;SDS011;19030;49.478;8.986;2023-02-28T04:34:06;13.23;;;7.10;;
32611;SDS011;19030;49.478;8.986;2023-02-28T04:36:07;22.30;;;9.73;;
32611;SDS011;19030;49.478;8.986;2023-02-28T04:38:08;16.88;;;8.55;;
32611;SDS011;19030;49.478;8.986;2023-02-28T04:40:09;11.90;;;6.30;;
32611;SDS011;19030;49.478;8.986;2023-02-28T04:42:10;10.85;;;6.03;;
32611;SDS011;19030;49.478;8.986;2023-02-28T04:44:12;18.10;;;10.52;;
32611;SDS011;19030;49.478;8.986;2023-02-28T04:46:13;12.77;;;7.38;;
32611;SDS011;19030;49.478;8.986;2023-02-28T04:48:14;18.95;;;8.10;;
32611;SDS011;19030;49.478;8.986;2023-02-28T04:50:14;13.57;;;5.93;;
32611;SDS011;19030;49.478;8.986;2023-02-28T04:52:15;13.43;;;6.70;;
32611;SDS011;19030;49.478;8.986;2023-02-28T04:54:16;12.00;;;6.50;;
32611;SDS011;19030;49.478;8.986;2023-02-28T04:56:18;13.50;;;7.25;;
32611;SDS011;19030;49.478;8.986;2023-02-28T04:58:19;14.30;;;7.15;;
32611;SDS011;19030;49.478;8.986;2023-02-28T05:00:19;10.85;;;5.82;;
32611;SDS011;19030;49.478;8.986;2023-02-28T05:02:20;11.82;;;6.47;;
32611;SDS011;19030;49.478;8.986;2023-02-28T05:04:21;11.43;;;6.28;;
32611;SDS011;19030;49.478;8.986;2023-02-28T05:06:22;11.10;;;6.15;;
32611;SDS011;19030;49.478;8.986;2023-02-28T05:08:24;11.20;;;6.68;;
32611;SDS011;19030;49.478;8.986;2023-02-28T05:10:25;10.77;;;5.82;;
32611;SDS011;19030;49.478;8.986;2023-02-28T05:12:27;11.52;;;6.30;;
32611;SDS011;19030;49.478;8.986;2023-02-28T05:14:27;13.55;;;6.55;;
32611;SDS011;19030;49.478;8.986;2023-02-28T05:16:28;10.80;;;6.20;;
32611;SDS011;19030;49.478;8.986;2023-02-28T05:18:28;11.98;;;6.25;;
32611;SDS011;19030;49.478;8.986;2023-02-28T05:20:29;14.60;;;6.30;;
32611;SDS011;19030;49.478;8.986;2023-02-28T05:22:29;11.73;;;6.95;;
32611;SDS011;19030;49.478;8.986;2023-02-28T05:24:30;10.60;;;6.03;;
32611;SDS011;19030;49.478;8.986;2023-02-28T05:26:33;14.60;;;6.85;;
32611;SDS011;19030;49.478;8.986;2023-02-28T05:28:35;19.65;;;10.20;;
32611;SDS011;19030;49.478;8.986;2023-02-28T05:30:36;15.30;;;7.20;;
32611;SDS011;19030;49.478;8.986;2023-02-28T05:32:37;30.17;;;13.50;;
32611;SDS011;19030;49.478;8.986;2023-02-28T05:34:38;14.48;;;7.63;;
32611;SDS011;19030;49.478;8.986;2023-02-28T05:36:39;11.95;;;6.53;;
32611;SDS011;19030;49.478;8.986;2023-02-28T05:38:40;12.80;;;6.10;;
32611;SDS011;19030;49.478;8.986;2023-02-28T05:40:40;15.57;;;8.70;;
32611;SDS011;19030;49.478;8.986;2023-02-28T05:42:41;15.13;;;6.63;;
32611;SDS011;19030;49.478;8.986;2023-02-28T05:44:42;13.05;;;6.70;;
32611;SDS011;19030;49.478;8.986;2023-02-28T05:46:42;10.15;;;5.82;;
32611;SDS011;19030;49.478;8.986;2023-02-28T05:48:45;16.60;;;7.03;;
32611;SDS011;19030;49.478;8.986;2023-02-28T05:50:47;12.45;;;6.30;;
32611;SDS011;19030;49.478;8.986;2023-02-28T05:52:50;13.25;;;7.10;;
32611;SDS011;19030;49.478;8.986;2023-02-28T05:54:52;11.65;;;6.32;;
32611;SDS011;19030;49.478;8.986;2023-02-28T05:56:52;12.20;;;6.88;;
32611;SDS011;19030;49.478;8.986;2023-02-28T05:58:53;13.65;;;6.40;;
32611;SDS011;19030;49.478;8.986;2023-02-28T06:00:54;11.55;;;6.57;;
32611;SDS011;19030;49.478;8.986;2023-02-28T06:02:54;11.25;;;6.60;;
32611;SDS011;19030;49.478;8.986;2023-02-28T06:04:57;11.63;;;6.72;;
32611;SDS011;19030;49.478;8.986;2023-02-28T06:06:58;13.77;;;6.90;;
32611;SDS011;19030;49.478;8.986;2023-02-28T06:08:59;11.80;;;6.32;;
32611;SDS011;19030;49.478;8.986;2023-02-28T06:11:02;12.88;;;6.50;;
32611;SDS011;19030;49.478;8.986;2023-02-28T06:13:04;12.05;;;6.97;;
32611;SDS011;19030;49.478;8.986;2023-02-28T06:15:05;16.02;;;7.40;;
32611;SDS011;19030;49.478;8.986;2023-02-28T06:17:05;12.15;;;6.57;;
32611;SDS011;19030;49.478;8.986;2023-02-28T06:19:06;13.93;;;6.20;;
32611;SDS011;19030;49.478;8.986;2023-02-28T06:21:07;13.95;;;6.28;;
32611;SDS011;19030;49.478;8.986;2023-02-28T06:23:08;11.05;;;5.68;;
32611;SDS011;19030;49.478;8.986;2023-02-28T06:25:09;13.77;;;6.50;;
32611;SDS011;19030;49.478;8.986;2023-02-28T06:27:10;11.85;;;6.47;;
32611;SDS011;19030;49.478;8.986;2023-02-28T06:29:11;14.98;;;6.63;;
32611;SDS011;19030;49.478;8.986;2023-02-28T06:31:12;11.10;;;5.80;;
32611;SDS011;19030;49.478;8.986;2023-02-28T06:33:14;12.02;;;6.55;;
32611;SDS011;19030;49.478;8.986;2023-02-28T06:35:14;13.43;;;6.90;;
32611;SDS011;19030;49.478;8.986;2023-02-28T06:37:15;13.35;;;6.78;;
32611;SDS011;19030;49.478;8.986;2023-02-28T06:39:17;13.40;;;6.93;;
32611;SDS011;19030;49.478;8.986;2023-02-28T06:41:18;12.98;;;6.63;;
32611;SDS011;19030;49.478;8.986;2023-02-28T06:43:18;12.52;;;6.95;;
32611;SDS011;19030;49.478;8.986;2023-02-28T06:45:19;12.00;;;6.68;;
32611;SDS011;19030;49.478;8.986;2023-02-28T06:47:19;14.55;;;6.93;;
32611;SDS011;19030;49.478;8.986;2023-02-28T06:49:20;13.18;;;6.60;;
32611;SDS011;19030;49.478;8.986;2023-02-28T06:51:21;12.98;;;7.40;;
32611;SDS011;19030;49.478;8.986;2023-02-28T06:53:22;12.55;;;6.75;;
32611;SDS011;19030;49.478;8.986;2023-02-28T06:55:22;12.32;;;6.85;;
32611;SDS011;19030;49.478;8.986;2023-02-28T06:57:23;13.98;;;7.03;;
32611;SDS011;19030;49.478;8.986;2023-02-28T06:59:25;14.50;;;6.88;;
32611;SDS011;19030;49.478;8.986;2023-02-28T07:01:25;13.68;;;7.13;;
32611;SDS011;19030;49.478;8.986;2023-02-28T07:03:27;11.95;;;6.97;;
32611;SDS011;19030;49.478;8.986;2023-02-28T07:05:28;13.45;;;6.53;;
32611;SDS011;19030;49.478;8.986;2023-02-28T07:07:28;17.90;;;7.20;;
32611;SDS011;19030;49.478;8.986;2023-02-28T07:09:29;11.93;;;6.63;;
32611;SDS011;19030;49.478;8.986;2023-02-28T07:11:30;14.25;;;8.00;;
32611;SDS011;19030;49.478;8.986;2023-02-28T07:13:30;12.10;;;6.50;;
32611;SDS011;19030;49.478;8.986;2023-02-28T07:15:31;12.60;;;6.72;;
32611;SDS011;19030;49.478;8.986;2023-02-28T07:17:32;14.25;;;7.35;;
32611;SDS011;19030;49.478;8.986;2023-02-28T07:19:32;13.02;;;6.85;;
32611;SDS011;19030;49.478;8.986;2023-02-28T07:21:33;12.77;;;6.60;;
32611;SDS011;19030;49.478;8.986;2023-02-28T07:23:33;13.27;;;6.85;;
32611;SDS011;19030;49.478;8.986;2023-02-28T07:25:35;10.65;;;6.43;;
32611;SDS011;19030;49.478;8.986;2023-02-28T07:27:35;12.13;;;6.28;;
32611;SDS011;19030;49.478;8.986;2023-02-28T07:29:36;11.25;;;6.10;;
32611;SDS011;19030;49.478;8.986;2023-02-28T07:31:38;14.80;;;7.00;;
32611;SDS011;19030;49.478;8.986;2023-02-28T07:33:38;13.23;;;6.82;;
32611;SDS011;19030;49.478;8.986;2023-02-28T07:35:39;13.40;;;6.80;;
32611;SDS011;19030;49.478;8.986;2023-02-28T07:37:40;11.10;;;6.18;;
32611;SDS011;19030;49.478;8.986;2023-02-28T07:39:42;11.02;;;6.10;;
32611;SDS011;19030;49.478;8.986;2023-02-28T07:41:42;11.48;;;6.35;;
32611;SDS011;19030;49.478;8.986;2023-02-28T07:43:43;12.70;;;6.43;;
32611;SDS011;19030;49.478;8.986;2023-02-28T07:45:44;13.10;;;7.13;;
32611;SDS011;19030;49.478;8.986;2023-02-28T07:47:45;11.93;;;6.45;;
32611;SDS011;19030;49.478;8.986;2023-02-28T07:49:46;13.50;;;6.55;;
32611;SDS011;19030;49.478;8.986;2023-02-28T07:51:46;11.15;;;6.03;;
32611;SDS011;19030;49.478;8.986;2023-02-28T07:53:47;15.60;;;8.13;;
32611;SDS011;19030;49.478;8.986;2023-02-28T07:55:48;11.57;;;6.88;;
32611;SDS011;19030;49.478;8.986;2023-02-28T07:57:48;10.38;;;6.28;;
32611;SDS011;19030;49.478;8.986;2023-02-28T07:59:49;12.00;;;5.97;;
32611;SDS011;19030;49.478;8.986;2023-02-28T08:01:50;13.25;;;6.55;;
32611;SDS011;19030;49.478;8.986;2023-02-28T08:03:51;10.43;;;5.90;;
32611;SDS011;19030;49.478;8.986;2023-02-28T08:05:51;11.93;;;6.28;;
32611;SDS011;19030;49.478;8.986;2023-02-28T08:07:52;12.82;;;6.07;;
32611;SDS011;19030;49.478;8.986;2023-02-28T08:09:53;11.30;;;6.22;;
32611;SDS011;19030;49.478;8.986;2023-02-28T08:11:54;13.80;;;6.32;;
32611;SDS011;19030;49.478;8.986;2023-02-28T08:13:54;12.30;;;6.22;;
32611;SDS011;19030;49.478;8.986;2023-02-28T08:15:55;11.48;;;6.13;;
32611;SDS011;19030;49.478;8.986;2023-02-28T08:17:56;15.18;;;6.88;;
32611;SDS011;19030;49.478;8.986;2023-02-28T08:19:57;12.88;;;6.50;;
32611;SDS011;19030;49.478;8.986;2023-02-28T08:21:57;12.15;;;6.13;;
32611;SDS011;19030;49.478;8.986;2023-02-28T08:23:58;11.07;;;5.82;;
32611;SDS011;19030;49.478;8.986;2023-02-28T08:25:59;11.75;;;5.57;;
32611;SDS011;19030;49.478;8.986;2023-02-28T08:28:00;15.05;;;6.40;;
32611;SDS011;19030;49.478;8.986;2023-02-28T08:30:01;10.90;;;5.78;;
32611;SDS011;19030;49.478;8.986;2023-02-28T08:32:03;12.48;;;6.00;;
32611;SDS011;19030;49.478;8.986;2023-02-28T08:34:08;13.27;;;6.43;;
32611;SDS011;19030;49.478;8.986;2023-02-28T08:36:11;12.93;;;6.68;;
32611;SDS011;19030;49.478;8.986;2023-02-28T08:38:11;13.68;;;6.03;;
32611;SDS011;19030;49.478;8.986;2023-02-28T08:40:12;14.57;;;7.10;;
32611;SDS011;19030;49.478;8.986;2023-02-28T08:42:17;11.45;;;6.25;;
32611;SDS011;19030;49.478;8.986;2023-02-28T08:44:18;10.55;;;5.75;;
32611;SDS011;19030;49.478;8.986;2023-02-28T08:46:19;11.55;;;6.57;;
32611;SDS011;19030;49.478;8.986;2023-02-28T08:48:20;12.35;;;6.68;;
32611;SDS011;19030;49.478;8.986;2023-02-28T08:50:20;11.13;;;6.38;;
32611;SDS011;19030;49.478;8.986;2023-02-28T08:52:21;12.95;;;6.65;;
32611;SDS011;19030;49.478;8.986;2023-02-28T08:54:22;10.80;;;6.25;;
32611;SDS011;19030;49.478;8.986;2023-02-28T08:56:23;11.05;;;6.38;;
32611;SDS011;19030;49.478;8.986;2023-02-28T08:58:24;11.30;;;6.32;;
32611;SDS011;19030;49.478;8.986;2023-02-28T09:00:25;12.40;;;6.25;;
32611;SDS011;19030;49.478;8.986;2023-02-28T09:02:25;12.68;;;6.63;;
32611;SDS011;19030;49.478;8.986;2023-02-28T09:04:26;11.38;;;6.22;;
32611;SDS011;19030;49.478;8.986;2023-02-28T09:06:27;10.88;;;6.25;;
32611;SDS011;19030;49.478;8.986;2023-02-28T09:08:29;12.80;;;6.47;;
32611;SDS011;19030;49.478;8.986;2023-02-28T09:10:30;11.07;;;5.90;;
32611;SDS011;19030;49.478;8.986;2023-02-28T09:12:32;12.35;;;6.93;;
32611;SDS011;19030;49.478;8.986;2023-02-28T09:14:34;12.25;;;6.88;;
32611;SDS011;19030;49.478;8.986;2023-02-28T09:16:35;11.65;;;6.88;;
32611;SDS011;19030;49.478;8.986;2023-02-28T09:18:36;13.25;;;6.57;;
32611;SDS011;19030;49.478;8.986;2023-02-28T09:20:38;13.90;;;7.10;;
32611;SDS011;19030;49.478;8.986;2023-02-28T09:22:39;11.90;;;6.88;;
32611;SDS011;19030;49.478;8.986;2023-02-28T09:24:40;12.20;;;6.95;;
32611;SDS011;19030;49.478;8.986;2023-02-28T09:26:40;11.68;;;6.57;;
32611;SDS011;19030;49.478;8.986;2023-02-28T09:28:41;12.02;;;6.68;;
32611;SDS011;19030;49.478;8.986;2023-02-28T09:30:43;11.60;;;6.68;;
32611;SDS011;19030;49.478;8.986;2023-02-28T09:32:45;13.63;;;7.18;;
32611;SDS011;19030;49.478;8.986;2023-02-28T09:34:51;12.70;;;6.65;;
32611;SDS011;19030;49.478;8.986;2023-02-28T09:36:52;12.65;;;7.03;;
32611;SDS011;19030;49.478;8.986;2023-02-28T09:38:54;15.30;;;6.97;;
32611;SDS011;19030;49.478;8.986;2023-02-28T09:40:56;11.70;;;6.57;;
32611;SDS011;19030;49.478;8.986;2023-02-28T09:42:59;13.73;;;7.13;;
32611;SDS011;19030;49.478;8.986;2023-02-28T09:45:00;12.52;;;7.03;;
32611;SDS011;19030;49.478;8.986;2023-02-28T09:49:08;12.82;;;7.57;;
32611;SDS011;19030;49.478;8.986;2023-02-28T09:53:27;11.70;;;7.30;;
32611;SDS011;19030;49.478;8.986;2023-02-28T09:55:45;17.08;;;9.07;;
32611;SDS011;19030;49.478;8.986;2023-02-28T09:58:11;11.18;;;6.88;;
32611;SDS011;19030;49.478;8.986;2023-02-28T10:02:49;22.75;;;12.98;;
32611;SDS011;19030;49.478;8.986;2023-02-28T10:05:03;13.52;;;8.05;;
32611;SDS011;19030;49.478;8.986;2023-02-28T10:07:16;12.57;;;8.38;;
32611;SDS011;19030;49.478;8.986;2023-02-28T10:09:26;12.73;;;7.30;;
32611;SDS011;19030;49.478;8.986;2023-02-28T10:11:32;16.63;;;9.70;;
32611;SDS011;19030;49.478;8.986;2023-02-28T10:13:40;14.68;;;8.02;;
32611;SDS011;19030;49.478;8.986;2023-02-28T10:15:58;13.93;;;8.98;;
32611;SDS011;19030;49.478;8.986;2023-02-28T10:20:17;13.18;;;7.20;;
32611;SDS011;19030;49.478;8.986;2023-02-28T10:22:22;12.45;;;7.40;;
32611;SDS011;19030;49.478;8.986;2023-02-28T10:24:32;13.82;;;8.70;;
32611;SDS011;19030;49.478;8.986;2023-02-28T10:26:37;13.75;;;8.57;;
32611;SDS011;19030;49.478;8.986;2023-02-28T10:28:39;14.35;;;9.23;;
32611;SDS011;19030;49.478;8.986;2023-02-28T10:30:41;13.40;;;8.05;;
32611;SDS011;19030;49.478;8.986;2023-02-28T10:32:47;11.70;;;7.70;;
32611;SDS011;19030;49.478;8.986;2023-02-28T10:34:52;12.82;;;8.20;;
32611;SDS011;19030;49.478;8.986;2023-02-28T10:37:13;14.73;;;9.77;;
32611;SDS011;19030;49.478;8.986;2023-02-28T10:41:37;11.15;;;7.55;;
32611;SDS011;19030;49.478;8.986;2023-02-28T10:43:43;13.27;;;8.18;;
32611;SDS011;19030;49.478;8.986;2023-02-28T10:48:30;11.60;;;7.35;;
32611;SDS011;19030;49.478;8.986;2023-02-28T10:52:52;14.57;;;8.48;;
32611;SDS011;19030;49.478;8.986;2023-02-28T10:54:53;12.68;;;8.73;;
32611;SDS011;19030;49.478;8.986;2023-02-28T10:57:23;15.98;;;7.80;;
32611;SDS011;19030;49.478;8.986;2023-02-28T10:59:28;13.30;;;8.98;;
32611;SDS011;19030;49.478;8.986;2023-02-28T11:01:38;14.23;;;8.18;;
32611;SDS011;19030;49.478;8.986;2023-02-28T11:03:39;12.10;;;8.00;;
32611;SDS011;19030;49.478;8.986;2023-02-28T11:05:39;12.10;;;8.55;;
32611;SDS011;19030;49.478;8.986;2023-02-28T11:07:42;25.42;;;15.00;;
32611;SDS011;19030;49.478;8.986;2023-02-28T11:09:55;12.35;;;7.95;;
32611;SDS011;19030;49.478;8.986;2023-02-28T11:11:57;44.70;;;21.73;;
32611;SDS011;19030;49.478;8.986;2023-02-28T11:14:04;14.38;;;8.55;;
32611;SDS011;19030;49.478;8.986;2023-02-28T11:16:15;12.35;;;8.43;;
32611;SDS011;19030;49.478;8.986;2023-02-28T11:20:30;13.48;;;9.20;;
32611;SDS011;19030;49.478;8.986;2023-02-28T11:22:33;12.65;;;8.52;;
32611;SDS011;19030;49.478;8.986;2023-02-28T11:26:47;15.07;;;12.43;;
32611;SDS011;19030;49.478;8.986;2023-02-28T11:28:50;19.95;;;18.00;;
32611;SDS011;19030;49.478;8.986;2023-02-28T11:33:55;17.00;;;14.75;;
32611;SDS011;19030;49.478;8.986;2023-02-28T11:35:57;23.80;;;20.40;;
32611;SDS011;19030;49.478;8.986;2023-02-28T11:38:01;22.13;;;17.70;;
32611;SDS011;19030;49.478;8.986;2023-02-28T11:40:04;16.90;;;15.23;;
32611;SDS011;19030;49.478;8.986;2023-02-28T11:44:39;15.55;;;13.95;;
32611;SDS011;19030;49.478;8.986;2023-02-28T11:51:27;48.88;;;24.88;;
32611;SDS011;19030;49.478;8.986;2023-02-28T11:58:38;19.85;;;12.48;;
32611;SDS011;19030;49.478;8.986;2023-02-28T12:03:25;18.27;;;15.98;;
32611;SDS011;19030;49.478;8.986;2023-02-28T12:05:44;17.85;;;15.77;;
32611;SDS011;19030;49.478;8.986;2023-02-28T12:10:31;14.43;;;9.55;;
32611;SDS011;19030;49.478;8.986;2023-02-28T12:15:18;15.95;;;10.38;;
32611;SDS011;19030;49.478;8.986;2023-02-28T12:17:41;13.07;;;9.30;;
32611;SDS011;19030;49.478;8.986;2023-02-28T12:24:38;14.05;;;8.52;;
32611;SDS011;19030;49.478;8.986;2023-02-28T12:26:58;13.35;;;8.90;;
32611;SDS011;19030;49.478;8.986;2023-02-28T12:31:28;14.00;;;9.45;;
32611;SDS011;19030;49.478;8.986;2023-02-28T12:33:40;16.83;;;9.55;;
32611;SDS011;19030;49.478;8.986;2023-02-28T12:38:10;14.20;;;9.30;;
32611;SDS011;19030;49.478;8.986;2023-02-28T12:40:27;14.07;;;10.82;;
32611;SDS011;19030;49.478;8.986;2023-02-28T12:42:36;14.55;;;8.55;;
32611;SDS011;19030;49.478;8.986;2023-02-28T12:44:49;12.63;;;8.80;;
32611;SDS011;19030;49.478;8.986;2023-02-28T12:46:55;15.82;;;9.80;;
32611;SDS011;19030;49.478;8.986;2023-02-28T12:49:04;14.65;;;9.02;;
32611;SDS011;19030;49.478;8.986;2023-02-28T12:51:27;19.80;;;16.63;;
32611;SDS011;19030;49.478;8.986;2023-02-28T12:53:42;17.17;;;15.38;;
32611;SDS011;19030;49.478;8.986;2023-02-28T12:56:19;16.52;;;14.82;;
32611;SDS011;19030;49.478;8.986;2023-02-28T12:58:28;16.77;;;15.07;;
32611;SDS011;19030;49.478;8.986;2023-02-28T13:00:35;17.15;;;14.43;;
32611;SDS011;19030;49.478;8.986;2023-02-28T13:09:38;16.67;;;14.25;;
32611;SDS011;19030;49.478;8.986;2023-02-28T13:11:41;15.68;;;13.80;;
32611;SDS011;19030;49.478;8.986;2023-02-28T13:13:45;15.13;;;12.95;;
32611;SDS011;19030;49.478;8.986;2023-02-28T13:17:59;16.15;;;14.45;;
32611;SDS011;19030;49.478;8.986;2023-02-28T13:19:59;15.07;;;13.48;;
32611;SDS011;19030;49.478;8.986;2023-02-28T13:22:00;15.48;;;13.88;;
32611;SDS011;19030;49.478;8.986;2023-02-28T13:24:03;16.52;;;14.77;;
32611;SDS011;19030;49.478;8.986;2023-02-28T13:26:04;16.70;;;13.10;;
32611;SDS011;19030;49.478;8.986;2023-02-28T13:28:09;18.77;;;13.82;;
32611;SDS011;19030;49.478;8.986;2023-02-28T13:33:10;13.80;;;9.82;;
32611;SDS011;19030;49.478;8.986;2023-02-28T13:35:34;12.50;;;9.25;;
32611;SDS011;19030;49.478;8.986;2023-02-28T13:37:41;13.60;;;8.77;;
32611;SDS011;19030;49.478;8.986;2023-02-28T13:41:45;13.90;;;9.13;;
32611;SDS011;19030;49.478;8.986;2023-02-28T13:46:12;13.32;;;9.10;;
32611;SDS011;19030;49.478;8.986;2023-02-28T13:48:17;13.82;;;9.13;;
32611;SDS011;19030;49.478;8.986;2023-02-28T13:50:28;13.95;;;8.93;;
32611;SDS011;19030;49.478;8.986;2023-02-28T13:52:31;12.77;;;8.40;;
32611;SDS011;19030;49.478;8.986;2023-02-28T13:59:24;14.50;;;9.02;;
32611;SDS011;19030;49.478;8.986;2023-02-28T14:01:39;12.32;;;9.10;;
32611;SDS011;19030;49.478;8.986;2023-02-28T14:03:55;14.05;;;8.57;;
32611;SDS011;19030;49.478;8.986;2023-02-28T14:06:30;13.57;;;9.30;;